Terminal Aerodrome Forecast
Issued by NWS Billings, MT

Home | Current Version | Previous Version | Text Only | Print | Product List | Glossary On
Versions: 1 2 3 4 5 6 7 8 9 10 11 12 13
000
FTUS45 KBYZ 231722
TAFMLS
TAF
KMLS 231722Z 2318/2418 32018G25KT P6SM SKC
     FM240400 29009KT P6SM FEW060 SCT120
     FM241700 31015G25KT P6SM SCT060=

USA.gov is the U.S. government's official web portal to all federal, state and local government web resources and services.